sensor_id;sensor_type;location;lat;lon;timestamp;P1;durP1;ratioP1;P2;durP2;ratioP2
71610;SDS011;59459;51.172;6.682;2023-03-01T00:02:09;13.60;;;6.20;;
71610;SDS011;59459;51.172;6.682;2023-03-01T00:04:34;14.30;;;6.63;;
71610;SDS011;59459;51.172;6.682;2023-03-01T00:07:00;14.30;;;6.53;;
71610;SDS011;59459;51.172;6.682;2023-03-01T00:09:25;17.30;;;6.93;;
71610;SDS011;59459;51.172;6.682;2023-03-01T00:11:51;12.67;;;6.13;;
71610;SDS011;59459;51.172;6.682;2023-03-01T00:14:16;16.60;;;6.27;;
71610;SDS011;59459;51.172;6.682;2023-03-01T00:16:42;14.33;;;6.50;;
71610;SDS011;59459;51.172;6.682;2023-03-01T00:19:09;12.68;;;5.78;;
71610;SDS011;59459;51.172;6.682;2023-03-01T00:21:36;15.77;;;6.78;;
71610;SDS011;59459;51.172;6.682;2023-03-01T00:24:01;15.53;;;6.90;;
71610;SDS011;59459;51.172;6.682;2023-03-01T00:26:27;14.80;;;7.20;;
71610;SDS011;59459;51.172;6.682;2023-03-01T00:28:52;14.20;;;6.20;;
71610;SDS011;59459;51.172;6.682;2023-03-01T00:31:19;15.00;;;7.60;;
71610;SDS011;59459;51.172;6.682;2023-03-01T00:33:45;16.70;;;7.78;;
71610;SDS011;59459;51.172;6.682;2023-03-01T00:36:11;14.87;;;6.13;;
71610;SDS011;59459;51.172;6.682;2023-03-01T00:38:37;17.23;;;6.72;;
71610;SDS011;59459;51.172;6.682;2023-03-01T00:41:04;17.25;;;6.40;;
71610;SDS011;59459;51.172;6.682;2023-03-01T00:43:29;16.27;;;7.45;;
71610;SDS011;59459;51.172;6.682;2023-03-01T00:45:55;15.95;;;7.40;;
71610;SDS011;59459;51.172;6.682;2023-03-01T00:48:20;16.13;;;7.13;;
71610;SDS011;59459;51.172;6.682;2023-03-01T00:50:46;13.33;;;6.60;;
71610;SDS011;59459;51.172;6.682;2023-03-01T00:53:11;13.50;;;7.03;;
71610;SDS011;59459;51.172;6.682;2023-03-01T00:55:36;16.77;;;6.90;;
71610;SDS011;59459;51.172;6.682;2023-03-01T00:58:01;14.47;;;6.70;;
71610;SDS011;59459;51.172;6.682;2023-03-01T01:00:27;17.10;;;8.13;;
71610;SDS011;59459;51.172;6.682;2023-03-01T01:02:52;12.83;;;6.63;;
71610;SDS011;59459;51.172;6.682;2023-03-01T01:05:18;15.40;;;7.30;;
71610;SDS011;59459;51.172;6.682;2023-03-01T01:07:45;17.70;;;7.28;;
71610;SDS011;59459;51.172;6.682;2023-03-01T01:10:11;14.13;;;6.83;;
71610;SDS011;59459;51.172;6.682;2023-03-01T01:12:45;14.35;;;6.65;;
71610;SDS011;59459;51.172;6.682;2023-03-01T01:15:10;14.98;;;7.30;;
71610;SDS011;59459;51.172;6.682;2023-03-01T01:17:37;17.48;;;7.70;;
71610;SDS011;59459;51.172;6.682;2023-03-01T01:20:03;19.17;;;8.17;;
71610;SDS011;59459;51.172;6.682;2023-03-01T01:22:28;16.50;;;7.80;;
71610;SDS011;59459;51.172;6.682;2023-03-01T01:24:53;17.50;;;7.53;;
71610;SDS011;59459;51.172;6.682;2023-03-01T01:27:19;19.27;;;8.13;;
71610;SDS011;59459;51.172;6.682;2023-03-01T01:29:44;16.77;;;7.13;;
71610;SDS011;59459;51.172;6.682;2023-03-01T01:32:09;14.50;;;7.33;;
71610;SDS011;59459;51.172;6.682;2023-03-01T01:34:34;17.03;;;7.40;;
71610;SDS011;59459;51.172;6.682;2023-03-01T01:36:59;17.60;;;7.87;;
71610;SDS011;59459;51.172;6.682;2023-03-01T01:39:27;16.63;;;7.22;;
71610;SDS011;59459;51.172;6.682;2023-03-01T01:41:52;17.70;;;7.83;;
71610;SDS011;59459;51.172;6.682;2023-03-01T01:51:46;20.50;;;8.30;;
71610;SDS011;59459;51.172;6.682;2023-03-01T01:54:17;20.33;;;7.82;;
71610;SDS011;59459;51.172;6.682;2023-03-01T01:56:44;17.30;;;8.27;;
71610;SDS011;59459;51.172;6.682;2023-03-01T01:59:12;17.58;;;7.05;;
71610;SDS011;59459;51.172;6.682;2023-03-01T02:01:38;16.20;;;7.85;;
71610;SDS011;59459;51.172;6.682;2023-03-01T02:04:03;18.80;;;8.07;;
71610;SDS011;59459;51.172;6.682;2023-03-01T02:07:13;17.97;;;7.77;;
71610;SDS011;59459;51.172;6.682;2023-03-01T02:09:18;14.57;;;7.50;;
71610;SDS011;59459;51.172;6.682;2023-03-01T02:11:43;17.42;;;7.88;;
71610;SDS011;59459;51.172;6.682;2023-03-01T02:14:09;18.40;;;8.30;;
71610;SDS011;59459;51.172;6.682;2023-03-01T02:16:34;15.23;;;7.27;;
71610;SDS011;59459;51.172;6.682;2023-03-01T02:18:59;16.27;;;6.93;;
71610;SDS011;59459;51.172;6.682;2023-03-01T02:21:30;16.27;;;7.90;;
71610;SDS011;59459;51.172;6.682;2023-03-01T02:24:01;14.40;;;7.72;;
71610;SDS011;59459;51.172;6.682;2023-03-01T02:26:34;17.25;;;8.38;;
71610;SDS011;59459;51.172;6.682;2023-03-01T02:29:01;17.07;;;8.20;;
71610;SDS011;59459;51.172;6.682;2023-03-01T02:31:27;17.23;;;8.00;;
71610;SDS011;59459;51.172;6.682;2023-03-01T02:34:14;16.87;;;8.20;;
71610;SDS011;59459;51.172;6.682;2023-03-01T02:36:42;18.73;;;8.05;;
71610;SDS011;59459;51.172;6.682;2023-03-01T02:39:09;16.58;;;7.60;;
71610;SDS011;59459;51.172;6.682;2023-03-01T02:41:39;16.80;;;8.30;;
71610;SDS011;59459;51.172;6.682;2023-03-01T02:44:05;20.25;;;8.73;;
71610;SDS011;59459;51.172;6.682;2023-03-01T02:46:31;17.43;;;7.70;;
71610;SDS011;59459;51.172;6.682;2023-03-01T02:48:57;16.77;;;8.53;;
71610;SDS011;59459;51.172;6.682;2023-03-01T02:51:32;16.53;;;7.73;;
71610;SDS011;59459;51.172;6.682;2023-03-01T02:56:59;17.38;;;8.20;;
71610;SDS011;59459;51.172;6.682;2023-03-01T02:59:26;17.85;;;8.27;;
71610;SDS011;59459;51.172;6.682;2023-03-01T03:01:53;22.67;;;8.60;;
71610;SDS011;59459;51.172;6.682;2023-03-01T03:04:18;18.50;;;7.93;;
71610;SDS011;59459;51.172;6.682;2023-03-01T03:06:46;21.73;;;9.07;;
71610;SDS011;59459;51.172;6.682;2023-03-01T03:09:11;20.20;;;8.70;;
71610;SDS011;59459;51.172;6.682;2023-03-01T03:11:36;19.07;;;8.87;;
71610;SDS011;59459;51.172;6.682;2023-03-01T03:14:04;18.23;;;8.57;;
71610;SDS011;59459;51.172;6.682;2023-03-01T03:16:29;17.73;;;8.33;;
71610;SDS011;59459;51.172;6.682;2023-03-01T03:18:55;20.53;;;8.57;;
71610;SDS011;59459;51.172;6.682;2023-03-01T03:21:20;17.27;;;8.83;;
71610;SDS011;59459;51.172;6.682;2023-03-01T03:23:45;17.77;;;9.00;;
71610;SDS011;59459;51.172;6.682;2023-03-01T03:26:10;18.63;;;8.30;;
71610;SDS011;59459;51.172;6.682;2023-03-01T03:28:38;18.07;;;8.53;;
71610;SDS011;59459;51.172;6.682;2023-03-01T03:31:05;20.88;;;9.38;;
71610;SDS011;59459;51.172;6.682;2023-03-01T03:33:30;20.30;;;8.73;;
71610;SDS011;59459;51.172;6.682;2023-03-01T03:35:56;19.47;;;8.83;;
71610;SDS011;59459;51.172;6.682;2023-03-01T03:38:21;21.90;;;9.00;;
71610;SDS011;59459;51.172;6.682;2023-03-01T03:41:08;20.55;;;9.90;;
71610;SDS011;59459;51.172;6.682;2023-03-01T03:43:33;18.65;;;8.63;;
71610;SDS011;59459;51.172;6.682;2023-03-01T03:45:59;20.10;;;9.37;;
71610;SDS011;59459;51.172;6.682;2023-03-01T03:48:24;19.42;;;10.00;;
71610;SDS011;59459;51.172;6.682;2023-03-01T03:50:51;22.43;;;8.87;;
71610;SDS011;59459;51.172;6.682;2023-03-01T03:53:16;22.48;;;9.70;;
71610;SDS011;59459;51.172;6.682;2023-03-01T03:55:42;21.15;;;9.10;;
71610;SDS011;59459;51.172;6.682;2023-03-01T03:58:09;21.10;;;8.67;;
71610;SDS011;59459;51.172;6.682;2023-03-01T04:00:36;17.35;;;8.43;;
71610;SDS011;59459;51.172;6.682;2023-03-01T04:03:02;20.85;;;9.38;;
71610;SDS011;59459;51.172;6.682;2023-03-01T04:05:27;20.17;;;9.90;;
71610;SDS011;59459;51.172;6.682;2023-03-01T04:07:52;19.40;;;9.47;;
71610;SDS011;59459;51.172;6.682;2023-03-01T04:10:26;23.63;;;11.75;;
71610;SDS011;59459;51.172;6.682;2023-03-01T04:12:51;25.08;;;12.77;;
71610;SDS011;59459;51.172;6.682;2023-03-01T04:15:17;24.67;;;11.83;;
71610;SDS011;59459;51.172;6.682;2023-03-01T04:17:43;26.57;;;14.00;;
71610;SDS011;59459;51.172;6.682;2023-03-01T04:20:09;26.95;;;13.73;;
71610;SDS011;59459;51.172;6.682;2023-03-01T04:22:36;30.73;;;14.70;;
71610;SDS011;59459;51.172;6.682;2023-03-01T04:25:01;25.97;;;13.93;;
71610;SDS011;59459;51.172;6.682;2023-03-01T04:27:27;34.30;;;14.80;;
71610;SDS011;59459;51.172;6.682;2023-03-01T04:29:52;30.80;;;15.67;;
71610;SDS011;59459;51.172;6.682;2023-03-01T04:32:17;30.63;;;14.80;;
71610;SDS011;59459;51.172;6.682;2023-03-01T04:34:43;27.97;;;15.47;;
71610;SDS011;59459;51.172;6.682;2023-03-01T04:37:08;40.03;;;18.87;;
71610;SDS011;59459;51.172;6.682;2023-03-01T04:39:33;38.92;;;20.25;;
71610;SDS011;59459;51.172;6.682;2023-03-01T04:41:59;45.67;;;22.93;;
71610;SDS011;59459;51.172;6.682;2023-03-01T04:44:24;46.57;;;22.57;;
71610;SDS011;59459;51.172;6.682;2023-03-01T04:46:49;45.13;;;21.83;;
71610;SDS011;59459;51.172;6.682;2023-03-01T04:49:15;49.03;;;22.70;;
71610;SDS011;59459;51.172;6.682;2023-03-01T04:51:41;43.35;;;21.42;;
71610;SDS011;59459;51.172;6.682;2023-03-01T04:54:06;45.87;;;21.93;;
71610;SDS011;59459;51.172;6.682;2023-03-01T04:56:33;44.10;;;22.80;;
71610;SDS011;59459;51.172;6.682;2023-03-01T04:58:59;40.63;;;21.30;;
71610;SDS011;59459;51.172;6.682;2023-03-01T05:01:25;37.70;;;20.50;;
71610;SDS011;59459;51.172;6.682;2023-03-01T05:03:51;37.60;;;19.90;;
71610;SDS011;59459;51.172;6.682;2023-03-01T05:06:17;31.73;;;17.40;;
71610;SDS011;59459;51.172;6.682;2023-03-01T05:08:43;40.63;;;17.52;;
71610;SDS011;59459;51.172;6.682;2023-03-01T05:11:09;33.00;;;16.48;;
71610;SDS011;59459;51.172;6.682;2023-03-01T05:13:35;32.97;;;14.93;;
71610;SDS011;59459;51.172;6.682;2023-03-01T05:16:03;35.67;;;16.45;;
71610;SDS011;59459;51.172;6.682;2023-03-01T05:18:29;33.70;;;15.32;;
71610;SDS011;59459;51.172;6.682;2023-03-01T05:20:56;35.55;;;15.40;;
71610;SDS011;59459;51.172;6.682;2023-03-01T05:23:26;26.87;;;13.53;;
71610;SDS011;59459;51.172;6.682;2023-03-01T05:25:51;30.93;;;13.97;;
71610;SDS011;59459;51.172;6.682;2023-03-01T05:28:17;28.10;;;13.60;;
71610;SDS011;59459;51.172;6.682;2023-03-01T05:30:43;29.47;;;13.83;;
71610;SDS011;59459;51.172;6.682;2023-03-01T05:33:08;30.85;;;14.00;;
71610;SDS011;59459;51.172;6.682;2023-03-01T05:35:43;28.03;;;13.70;;
71610;SDS011;59459;51.172;6.682;2023-03-01T05:38:09;31.80;;;15.32;;
71610;SDS011;59459;51.172;6.682;2023-03-01T05:40:34;29.40;;;12.82;;
71610;SDS011;59459;51.172;6.682;2023-03-01T05:43:00;27.40;;;12.87;;
71610;SDS011;59459;51.172;6.682;2023-03-01T05:45:26;25.87;;;11.77;;
71610;SDS011;59459;51.172;6.682;2023-03-01T05:47:51;29.02;;;12.35;;
71610;SDS011;59459;51.172;6.682;2023-03-01T05:52:48;28.63;;;12.20;;
71610;SDS011;59459;51.172;6.682;2023-03-01T05:55:18;21.92;;;11.10;;
71610;SDS011;59459;51.172;6.682;2023-03-01T05:57:43;26.65;;;11.45;;
71610;SDS011;59459;51.172;6.682;2023-03-01T06:00:09;26.70;;;10.50;;
71610;SDS011;59459;51.172;6.682;2023-03-01T06:02:34;23.47;;;10.03;;
71610;SDS011;59459;51.172;6.682;2023-03-01T06:05:00;25.00;;;11.00;;
71610;SDS011;59459;51.172;6.682;2023-03-01T06:07:25;22.95;;;10.48;;
71610;SDS011;59459;51.172;6.682;2023-03-01T06:09:50;20.57;;;10.30;;
71610;SDS011;59459;51.172;6.682;2023-03-01T06:12:16;24.70;;;10.33;;
71610;SDS011;59459;51.172;6.682;2023-03-01T06:14:41;23.50;;;10.03;;
71610;SDS011;59459;51.172;6.682;2023-03-01T06:17:06;24.33;;;10.17;;
71610;SDS011;59459;51.172;6.682;2023-03-01T06:19:31;22.40;;;10.43;;
71610;SDS011;59459;51.172;6.682;2023-03-01T06:21:56;20.30;;;8.67;;
71610;SDS011;59459;51.172;6.682;2023-03-01T06:24:22;19.97;;;9.83;;
71610;SDS011;59459;51.172;6.682;2023-03-01T06:26:47;23.97;;;10.13;;
71610;SDS011;59459;51.172;6.682;2023-03-01T06:29:12;23.07;;;9.97;;
71610;SDS011;59459;51.172;6.682;2023-03-01T06:31:37;25.43;;;10.13;;
71610;SDS011;59459;51.172;6.682;2023-03-01T06:34:02;24.00;;;10.07;;
71610;SDS011;59459;51.172;6.682;2023-03-01T06:36:28;23.00;;;10.23;;
71610;SDS011;59459;51.172;6.682;2023-03-01T06:38:53;25.83;;;10.27;;
71610;SDS011;59459;51.172;6.682;2023-03-01T06:41:18;25.60;;;11.50;;
71610;SDS011;59459;51.172;6.682;2023-03-01T06:43:43;25.53;;;10.57;;
71610;SDS011;59459;51.172;6.682;2023-03-01T06:46:08;27.50;;;10.93;;
71610;SDS011;59459;51.172;6.682;2023-03-01T06:48:34;24.57;;;11.90;;
71610;SDS011;59459;51.172;6.682;2023-03-01T06:50:59;22.63;;;10.10;;
71610;SDS011;59459;51.172;6.682;2023-03-01T06:53:26;24.67;;;10.65;;
71610;SDS011;59459;51.172;6.682;2023-03-01T06:55:55;24.97;;;10.73;;
71610;SDS011;59459;51.172;6.682;2023-03-01T06:58:20;26.30;;;10.48;;
71610;SDS011;59459;51.172;6.682;2023-03-01T07:00:45;28.03;;;11.17;;
71610;SDS011;59459;51.172;6.682;2023-03-01T07:03:10;20.60;;;9.20;;
71610;SDS011;59459;51.172;6.682;2023-03-01T07:05:35;23.73;;;11.13;;
71610;SDS011;59459;51.172;6.682;2023-03-01T07:08:00;25.03;;;10.77;;
71610;SDS011;59459;51.172;6.682;2023-03-01T07:10:26;25.87;;;10.90;;
71610;SDS011;59459;51.172;6.682;2023-03-01T07:12:54;25.53;;;11.20;;
71610;SDS011;59459;51.172;6.682;2023-03-01T07:15:22;26.35;;;11.10;;
71610;SDS011;59459;51.172;6.682;2023-03-01T07:17:47;27.63;;;11.00;;
71610;SDS011;59459;51.172;6.682;2023-03-01T07:20:14;27.23;;;11.18;;
71610;SDS011;59459;51.172;6.682;2023-03-01T07:22:40;26.20;;;11.67;;
71610;SDS011;59459;51.172;6.682;2023-03-01T07:25:07;23.00;;;10.98;;
71610;SDS011;59459;51.172;6.682;2023-03-01T07:27:32;26.23;;;11.07;;
71610;SDS011;59459;51.172;6.682;2023-03-01T07:29:57;25.30;;;11.13;;
71610;SDS011;59459;51.172;6.682;2023-03-01T07:32:22;23.67;;;10.80;;
71610;SDS011;59459;51.172;6.682;2023-03-01T07:34:47;28.63;;;11.90;;
71610;SDS011;59459;51.172;6.682;2023-03-01T07:37:13;26.27;;;11.30;;
71610;SDS011;59459;51.172;6.682;2023-03-01T07:39:38;25.73;;;11.63;;
71610;SDS011;59459;51.172;6.682;2023-03-01T07:42:06;24.98;;;10.75;;
71610;SDS011;59459;51.172;6.682;2023-03-01T07:44:31;27.03;;;11.33;;
71610;SDS011;59459;51.172;6.682;2023-03-01T07:46:56;25.90;;;11.27;;
71610;SDS011;59459;51.172;6.682;2023-03-01T07:49:23;25.70;;;10.70;;
71610;SDS011;59459;51.172;6.682;2023-03-01T07:51:48;26.27;;;11.20;;
71610;SDS011;59459;51.172;6.682;2023-03-01T07:54:13;29.73;;;12.13;;
71610;SDS011;59459;51.172;6.682;2023-03-01T07:56:38;27.37;;;11.43;;
71610;SDS011;59459;51.172;6.682;2023-03-01T07:59:03;26.13;;;11.23;;
71610;SDS011;59459;51.172;6.682;2023-03-01T08:01:29;26.67;;;11.07;;
71610;SDS011;59459;51.172;6.682;2023-03-01T08:03:54;27.17;;;10.77;;
71610;SDS011;59459;51.172;6.682;2023-03-01T08:06:19;25.27;;;11.10;;
71610;SDS011;59459;51.172;6.682;2023-03-01T08:08:44;26.27;;;10.83;;
71610;SDS011;59459;51.172;6.682;2023-03-01T08:11:10;24.37;;;9.90;;
71610;SDS011;59459;51.172;6.682;2023-03-01T08:13:36;22.73;;;9.73;;
71610;SDS011;59459;51.172;6.682;2023-03-01T08:16:08;25.87;;;9.77;;
71610;SDS011;59459;51.172;6.682;2023-03-01T08:18:34;23.02;;;9.93;;
71610;SDS011;59459;51.172;6.682;2023-03-01T08:21:03;25.20;;;10.07;;
71610;SDS011;59459;51.172;6.682;2023-03-01T08:23:28;26.50;;;10.20;;
71610;SDS011;59459;51.172;6.682;2023-03-01T08:25:54;24.25;;;10.55;;
71610;SDS011;59459;51.172;6.682;2023-03-01T08:28:20;19.80;;;8.67;;
71610;SDS011;59459;51.172;6.682;2023-03-01T08:30:45;22.43;;;10.13;;
71610;SDS011;59459;51.172;6.682;2023-03-01T08:33:11;23.07;;;9.60;;
71610;SDS011;59459;51.172;6.682;2023-03-01T08:35:36;21.63;;;8.97;;
71610;SDS011;59459;51.172;6.682;2023-03-01T08:38:01;20.10;;;8.50;;
71610;SDS011;59459;51.172;6.682;2023-03-01T08:40:26;23.83;;;9.60;;
71610;SDS011;59459;51.172;6.682;2023-03-01T08:42:51;21.93;;;9.77;;
71610;SDS011;59459;51.172;6.682;2023-03-01T08:45:17;20.77;;;9.07;;
71610;SDS011;59459;51.172;6.682;2023-03-01T08:47:43;21.50;;;8.23;;
71610;SDS011;59459;51.172;6.682;2023-03-01T08:50:10;17.00;;;8.57;;
71610;SDS011;59459;51.172;6.682;2023-03-01T08:52:35;20.57;;;8.23;;
71610;SDS011;59459;51.172;6.682;2023-03-01T08:55:00;20.43;;;9.10;;
71610;SDS011;59459;51.172;6.682;2023-03-01T08:57:26;18.17;;;8.23;;
71610;SDS011;59459;51.172;6.682;2023-03-01T08:59:51;17.80;;;8.17;;
71610;SDS011;59459;51.172;6.682;2023-03-01T09:02:17;21.53;;;8.50;;
71610;SDS011;59459;51.172;6.682;2023-03-01T09:04:42;24.33;;;8.77;;
71610;SDS011;59459;51.172;6.682;2023-03-01T09:07:08;17.43;;;8.27;;
71610;SDS011;59459;51.172;6.682;2023-03-01T09:09:34;19.63;;;8.30;;
71610;SDS011;59459;51.172;6.682;2023-03-01T09:11:59;14.65;;;7.38;;
71610;SDS011;59459;51.172;6.682;2023-03-01T09:14:24;23.10;;;9.13;;
71610;SDS011;59459;51.172;6.682;2023-03-01T09:16:50;18.33;;;8.40;;
71610;SDS011;59459;51.172;6.682;2023-03-01T09:19:15;19.87;;;7.10;;
71610;SDS011;59459;51.172;6.682;2023-03-01T09:21:40;18.20;;;8.17;;
71610;SDS011;59459;51.172;6.682;2023-03-01T09:24:11;18.13;;;8.30;;
71610;SDS011;59459;51.172;6.682;2023-03-01T09:26:37;15.20;;;7.63;;
71610;SDS011;59459;51.172;6.682;2023-03-01T09:29:02;17.17;;;7.90;;
71610;SDS011;59459;51.172;6.682;2023-03-01T09:31:28;18.58;;;8.85;;
71610;SDS011;59459;51.172;6.682;2023-03-01T09:33:53;19.43;;;7.97;;
71610;SDS011;59459;51.172;6.682;2023-03-01T09:36:20;19.00;;;8.03;;
71610;SDS011;59459;51.172;6.682;2023-03-01T09:38:46;19.17;;;8.50;;
71610;SDS011;59459;51.172;6.682;2023-03-01T09:43:47;19.37;;;8.13;;
71610;SDS011;59459;51.172;6.682;2023-03-01T09:46:13;17.05;;;7.32;;
71610;SDS011;59459;51.172;6.682;2023-03-01T09:48:49;16.92;;;7.57;;
71610;SDS011;59459;51.172;6.682;2023-03-01T09:51:19;16.15;;;7.95;;
71610;SDS011;59459;51.172;6.682;2023-03-01T09:53:46;16.13;;;7.82;;
71610;SDS011;59459;51.172;6.682;2023-03-01T09:56:17;19.07;;;8.80;;
71610;SDS011;59459;51.172;6.682;2023-03-01T09:58:47;16.70;;;7.97;;
71610;SDS011;59459;51.172;6.682;2023-03-01T10:01:23;15.48;;;7.80;;
71610;SDS011;59459;51.172;6.682;2023-03-01T10:06:24;16.38;;;7.88;;
71610;SDS011;59459;51.172;6.682;2023-03-01T10:13:55;14.67;;;7.40;;
71610;SDS011;59459;51.172;6.682;2023-03-01T10:18:58;15.83;;;7.97;;
71610;SDS011;59459;51.172;6.682;2023-03-01T10:21:25;14.75;;;7.55;;
71610;SDS011;59459;51.172;6.682;2023-03-01T10:23:52;15.10;;;7.97;;
71610;SDS011;59459;51.172;6.682;2023-03-01T10:26:34;15.50;;;7.93;;
71610;SDS011;59459;51.172;6.682;2023-03-01T10:29:04;15.80;;;8.05;;
71610;SDS011;59459;51.172;6.682;2023-03-01T10:31:36;15.87;;;8.70;;
71610;SDS011;59459;51.172;6.682;2023-03-01T10:34:07;16.77;;;9.40;;
71610;SDS011;59459;51.172;6.682;2023-03-01T10:36:33;17.27;;;9.55;;
71610;SDS011;59459;51.172;6.682;2023-03-01T10:38:58;16.17;;;8.50;;
71610;SDS011;59459;51.172;6.682;2023-03-01T10:41:25;14.63;;;9.23;;
71610;SDS011;59459;51.172;6.682;2023-03-01T10:43:52;15.32;;;9.10;;
71610;SDS011;59459;51.172;6.682;2023-03-01T10:46:22;16.03;;;9.60;;
71610;SDS011;59459;51.172;6.682;2023-03-01T10:48:59;15.52;;;9.32;;
71610;SDS011;59459;51.172;6.682;2023-03-01T10:51:30;15.23;;;9.38;;
71610;SDS011;59459;51.172;6.682;2023-03-01T10:53:55;15.23;;;9.00;;
71610;SDS011;59459;51.172;6.682;2023-03-01T10:56:21;14.20;;;9.23;;
71610;SDS011;59459;51.172;6.682;2023-03-01T11:01:27;15.23;;;9.13;;
71610;SDS011;59459;51.172;6.682;2023-03-01T11:06:31;14.40;;;9.40;;
71610;SDS011;59459;51.172;6.682;2023-03-01T11:08:56;13.70;;;9.63;;
71610;SDS011;59459;51.172;6.682;2023-03-01T11:18:56;12.63;;;8.90;;
71610;SDS011;59459;51.172;6.682;2023-03-01T11:21:21;14.55;;;9.32;;
71610;SDS011;59459;51.172;6.682;2023-03-01T11:23:46;14.43;;;8.93;;
71610;SDS011;59459;51.172;6.682;2023-03-01T11:26:12;12.73;;;8.63;;
71610;SDS011;59459;51.172;6.682;2023-03-01T11:28:38;15.87;;;10.27;;
71610;SDS011;59459;51.172;6.682;2023-03-01T11:31:09;12.90;;;9.27;;
71610;SDS011;59459;51.172;6.682;2023-03-01T11:36:03;14.10;;;9.50;;
71610;SDS011;59459;51.172;6.682;2023-03-01T11:38:30;12.23;;;9.18;;
71610;SDS011;59459;51.172;6.682;2023-03-01T11:43:49;14.37;;;8.67;;
71610;SDS011;59459;51.172;6.682;2023-03-01T11:49:06;13.68;;;9.65;;
71610;SDS011;59459;51.172;6.682;2023-03-01T11:57:05;13.73;;;9.10;;
71610;SDS011;59459;51.172;6.682;2023-03-01T12:07:33;14.32;;;9.02;;
71610;SDS011;59459;51.172;6.682;2023-03-01T12:10:43;14.33;;;8.83;;
71610;SDS011;59459;51.172;6.682;2023-03-01T12:18:05;15.70;;;9.63;;
71610;SDS011;59459;51.172;6.682;2023-03-01T12:20:43;14.93;;;9.88;;
71610;SDS011;59459;51.172;6.682;2023-03-01T12:25:41;12.82;;;9.43;;
71610;SDS011;59459;51.172;6.682;2023-03-01T12:33:08;13.10;;;8.82;;
71610;SDS011;59459;51.172;6.682;2023-03-01T12:53:13;12.43;;;7.47;;
71610;SDS011;59459;51.172;6.682;2023-03-01T12:55:42;10.30;;;7.60;;
71610;SDS011;59459;51.172;6.682;2023-03-01T13:01:10;14.77;;;8.17;;
71610;SDS011;59459;51.172;6.682;2023-03-01T13:03:37;10.55;;;7.53;;
71610;SDS011;59459;51.172;6.682;2023-03-01T13:06:19;12.05;;;7.60;;
71610;SDS011;59459;51.172;6.682;2023-03-01T13:11:21;12.00;;;7.97;;
71610;SDS011;59459;51.172;6.682;2023-03-01T13:13:47;11.18;;;7.28;;
71610;SDS011;59459;51.172;6.682;2023-03-01T13:16:21;11.00;;;6.87;;
71610;SDS011;59459;51.172;6.682;2023-03-01T13:18:47;11.32;;;7.68;;
71610;SDS011;59459;51.172;6.682;2023-03-01T13:21:12;11.13;;;7.10;;
71610;SDS011;59459;51.172;6.682;2023-03-01T13:23:53;12.02;;;7.25;;
71610;SDS011;59459;51.172;6.682;2023-03-01T13:26:18;16.70;;;8.03;;
71610;SDS011;59459;51.172;6.682;2023-03-01T13:31:09;10.57;;;6.90;;
71610;SDS011;59459;51.172;6.682;2023-03-01T13:33:42;11.00;;;7.20;;
71610;SDS011;59459;51.172;6.682;2023-03-01T13:36:08;11.45;;;7.22;;
71610;SDS011;59459;51.172;6.682;2023-03-01T13:38:47;12.10;;;7.07;;
71610;SDS011;59459;51.172;6.682;2023-03-01T13:41:16;11.88;;;7.38;;
71610;SDS011;59459;51.172;6.682;2023-03-01T13:43:42;10.32;;;7.07;;
71610;SDS011;59459;51.172;6.682;2023-03-01T13:46:21;10.55;;;6.65;;
71610;SDS011;59459;51.172;6.682;2023-03-01T13:48:50;9.87;;;6.17;;
71610;SDS011;59459;51.172;6.682;2023-03-01T13:51:16;11.60;;;6.88;;
71610;SDS011;59459;51.172;6.682;2023-03-01T13:53:46;9.95;;;6.65;;
71610;SDS011;59459;51.172;6.682;2023-03-01T13:58:48;11.83;;;6.20;;
71610;SDS011;59459;51.172;6.682;2023-03-01T14:03:49;11.02;;;6.80;;
71610;SDS011;59459;51.172;6.682;2023-03-01T14:06:16;10.47;;;6.63;;
71610;SDS011;59459;51.172;6.682;2023-03-01T14:08:43;10.82;;;6.50;;
71610;SDS011;59459;51.172;6.682;2023-03-01T14:18:38;11.50;;;6.47;;
71610;SDS011;59459;51.172;6.682;2023-03-01T14:21:08;11.43;;;6.55;;
71610;SDS011;59459;51.172;6.682;2023-03-01T14:23:33;11.40;;;7.10;;
71610;SDS011;59459;51.172;6.682;2023-03-01T14:26:00;10.90;;;7.28;;
71610;SDS011;59459;51.172;6.682;2023-03-01T14:28:27;12.20;;;6.37;;
71610;SDS011;59459;51.172;6.682;2023-03-01T14:30:53;13.15;;;7.05;;
71610;SDS011;59459;51.172;6.682;2023-03-01T14:33:23;13.10;;;7.15;;
71610;SDS011;59459;51.172;6.682;2023-03-01T14:36:08;11.53;;;6.50;;
71610;SDS011;59459;51.172;6.682;2023-03-01T14:38:38;11.63;;;6.35;;
71610;SDS011;59459;51.172;6.682;2023-03-01T14:41:11;11.13;;;6.65;;
71610;SDS011;59459;51.172;6.682;2023-03-01T14:43:41;10.63;;;6.63;;
71610;SDS011;59459;51.172;6.682;2023-03-01T14:46:06;12.52;;;6.70;;
71610;SDS011;59459;51.172;6.682;2023-03-01T14:48:41;11.90;;;6.80;;
71610;SDS011;59459;51.172;6.682;2023-03-01T14:51:06;12.73;;;6.70;;
71610;SDS011;59459;51.172;6.682;2023-03-01T14:53:31;13.47;;;6.77;;
71610;SDS011;59459;51.172;6.682;2023-03-01T14:56:00;13.70;;;7.27;;
71610;SDS011;59459;51.172;6.682;2023-03-01T14:58:28;12.60;;;6.28;;
71610;SDS011;59459;51.172;6.682;2023-03-01T15:00:58;13.38;;;7.15;;
71610;SDS011;59459;51.172;6.682;2023-03-01T15:03:37;11.18;;;6.93;;
71610;SDS011;59459;51.172;6.682;2023-03-01T15:06:03;13.07;;;6.40;;
71610;SDS011;59459;51.172;6.682;2023-03-01T15:08:29;12.93;;;6.07;;
71610;SDS011;59459;51.172;6.682;2023-03-01T15:11:05;12.75;;;6.97;;
71610;SDS011;59459;51.172;6.682;2023-03-01T15:13:31;10.82;;;5.88;;
71610;SDS011;59459;51.172;6.682;2023-03-01T15:16:05;12.35;;;6.40;;
71610;SDS011;59459;51.172;6.682;2023-03-01T15:18:30;10.98;;;6.20;;
71610;SDS011;59459;51.172;6.682;2023-03-01T15:20:56;13.17;;;6.17;;
71610;SDS011;59459;51.172;6.682;2023-03-01T15:23:30;12.15;;;7.13;;
71610;SDS011;59459;51.172;6.682;2023-03-01T15:25:55;11.90;;;5.73;;
71610;SDS011;59459;51.172;6.682;2023-03-01T15:28:22;12.83;;;5.40;;
71610;SDS011;59459;51.172;6.682;2023-03-01T15:30:52;15.02;;;5.68;;
71610;SDS011;59459;51.172;6.682;2023-03-01T15:35:46;11.48;;;6.05;;
71610;SDS011;59459;51.172;6.682;2023-03-01T15:38:25;13.02;;;6.07;;
71610;SDS011;59459;51.172;6.682;2023-03-01T15:40:50;12.47;;;5.70;;
71610;SDS011;59459;51.172;6.682;2023-03-01T15:45:59;12.65;;;5.63;;
71610;SDS011;59459;51.172;6.682;2023-03-01T15:48:26;12.65;;;6.18;;
71610;SDS011;59459;51.172;6.682;2023-03-01T15:50:55;12.57;;;5.45;;
71610;SDS011;59459;51.172;6.682;2023-03-01T15:53:21;12.23;;;5.30;;
71610;SDS011;59459;51.172;6.682;2023-03-01T15:55:47;13.63;;;5.60;;
71610;SDS011;59459;51.172;6.682;2023-03-01T15:58:24;12.63;;;5.55;;
71610;SDS011;59459;51.172;6.682;2023-03-01T16:00:49;10.80;;;5.35;;
71610;SDS011;59459;51.172;6.682;2023-03-01T16:03:20;11.18;;;5.55;;
71610;SDS011;59459;51.172;6.682;2023-03-01T16:05:47;10.85;;;5.25;;
71610;SDS011;59459;51.172;6.682;2023-03-01T16:08:12;11.60;;;5.20;;
71610;SDS011;59459;51.172;6.682;2023-03-01T16:10:37;14.47;;;5.57;;
71610;SDS011;59459;51.172;6.682;2023-03-01T16:13:03;12.45;;;5.25;;
71610;SDS011;59459;51.172;6.682;2023-03-01T16:15:30;12.00;;;5.40;;
71610;SDS011;59459;51.172;6.682;2023-03-01T16:17:56;13.07;;;5.22;;
71610;SDS011;59459;51.172;6.682;2023-03-01T16:20:23;13.13;;;5.20;;
71610;SDS011;59459;51.172;6.682;2023-03-01T16:22:48;11.77;;;4.53;;
71610;SDS011;59459;51.172;6.682;2023-03-01T16:25:15;11.85;;;4.93;;
71610;SDS011;59459;51.172;6.682;2023-03-01T16:27:43;12.18;;;4.90;;